createdAt,value
2023-04-17T00:01:58.016Z,63.53
2023-04-17T00:04:27.866Z,57.33
2023-04-17T00:06:59.394Z,63.47
2023-04-17T00:09:30.465Z,62.20
2023-04-17T00:11:58.658Z,60.03
2023-04-17T00:14:30.212Z,69.87
2023-04-17T00:17:01.419Z,69.33
2023-04-17T00:19:29.399Z,67.40
2023-04-17T00:21:59.645Z,64.77
2023-04-17T00:24:27.577Z,72.33
2023-04-17T00:26:58.346Z,66.90
2023-04-17T00:29:32.793Z,72.30
2023-04-17T00:32:06.153Z,70.30
2023-04-17T00:34:34.659Z,68.33
2023-04-17T00:37:09.788Z,74.53
2023-04-17T00:39:37.893Z,72.93
2023-04-17T00:42:07.534Z,79.43
2023-04-17T00:44:42.230Z,73.17
2023-04-17T00:47:12.407Z,70.70
2023-04-17T00:49:44.692Z,75.13
2023-04-17T00:52:16.170Z,73.30
2023-04-17T00:54:46.430Z,80.93
2023-04-17T00:57:14.617Z,80.00
2023-04-17T00:59:44.848Z,81.47
2023-04-17T01:02:13.121Z,80.37
2023-04-17T01:04:41.210Z,83.37
2023-04-17T01:07:10.584Z,79.03
2023-04-17T01:09:39.575Z,81.37
2023-04-17T01:12:20.535Z,73.73
2023-04-17T01:14:50.886Z,82.83
2023-04-17T01:17:22.245Z,77.10
2023-04-17T01:19:51.183Z,82.83
2023-04-17T01:22:20.578Z,84.80
2023-04-17T01:25:00.206Z,85.93
2023-04-17T01:27:35.233Z,84.67
2023-04-17T01:30:03.981Z,87.07
2023-04-17T01:32:38.064Z,85.93
2023-04-17T01:35:09.224Z,79.80
2023-04-17T01:37:40.141Z,82.43
2023-04-17T01:40:12.645Z,85.57
2023-04-17T01:42:43.757Z,90.17
2023-04-17T01:45:14.580Z,89.87
2023-04-17T01:47:50.724Z,91.07
2023-04-17T01:50:19.179Z,92.80
2023-04-17T01:52:47.117Z,88.80
2023-04-17T01:55:19.258Z,94.43
2023-04-17T01:57:47.312Z,96.07
2023-04-17T02:00:18.843Z,90.00
2023-04-17T02:02:52.287Z,91.97
2023-04-17T02:05:20.886Z,93.80
2023-04-17T02:07:50.779Z,94.70
2023-04-17T02:10:21.148Z,99.40
2023-04-17T02:12:51.107Z,100.93
2023-04-17T02:15:25.889Z,101.80
2023-04-17T02:17:58.467Z,108.60
2023-04-17T02:20:26.692Z,98.87
2023-04-17T02:22:57.745Z,99.23
2023-04-17T02:25:33.305Z,100.30
2023-04-17T02:28:01.422Z,97.90
2023-04-17T02:30:31.901Z,97.57
2023-04-17T02:33:05.975Z,98.57
2023-04-17T02:35:38.114Z,99.77
2023-04-17T02:38:07.611Z,98.60
2023-04-17T02:40:44.057Z,101.83
2023-04-17T02:43:14.937Z,93.90
2023-04-17T02:45:45.958Z,97.50
2023-04-17T02:48:16.068Z,96.30
2023-04-17T02:50:49.031Z,94.73
2023-04-17T02:53:22.869Z,98.17
2023-04-17T02:55:53.956Z,95.57
2023-04-17T02:58:29.343Z,100.97
2023-04-17T03:01:02.390Z,94.70
2023-04-17T03:03:38.961Z,99.80
2023-04-17T03:06:16.978Z,99.10
2023-04-17T03:08:45.304Z,94.93
2023-04-17T03:11:20.711Z,92.67
2023-04-17T03:13:50.786Z,95.73
2023-04-17T03:16:18.912Z,92.47
2023-04-17T03:18:47.723Z,96.50
2023-04-17T03:21:15.718Z,92.87
2023-04-17T03:23:46.042Z,93.67
2023-04-17T03:26:20.507Z,96.83
2023-04-17T03:28:56.883Z,95.97
2023-04-17T03:31:25.838Z,95.50
2023-04-17T03:33:59.118Z,97.00
2023-04-17T03:36:29.282Z,98.77
2023-04-17T03:38:57.813Z,104.70
2023-04-17T03:41:28.955Z,92.60
2023-04-17T03:43:58.293Z,93.57
2023-04-17T03:46:29.337Z,92.77
2023-04-17T03:48:59.069Z,91.07
2023-04-17T03:51:31.556Z,90.03
2023-04-17T03:54:13.076Z,94.67
2023-04-17T03:56:43.487Z,93.60
2023-04-17T03:59:16.082Z,93.30
2023-04-17T04:01:46.878Z,90.77
2023-04-17T04:04:19.556Z,97.97
2023-04-17T04:06:54.592Z,94.50
2023-04-17T04:09:27.009Z,90.47
2023-04-17T04:11:55.287Z,90.47
2023-04-17T04:14:27.524Z,88.87
2023-04-17T04:16:57.295Z,92.97
2023-04-17T04:19:26.340Z,90.53
2023-04-17T04:21:57.292Z,93.07
2023-04-17T04:24:34.025Z,96.63
2023-04-17T04:27:09.226Z,93.47
2023-04-17T04:29:41.647Z,93.07
2023-04-17T04:32:15.813Z,94.10
2023-04-17T04:34:51.712Z,90.83
2023-04-17T04:37:24.649Z,89.67
2023-04-17T04:40:04.389Z,93.47
2023-04-17T04:42:32.972Z,93.43
2023-04-17T04:45:35.379Z,89.63
2023-04-17T04:48:05.088Z,97.47
2023-04-17T04:50:33.131Z,92.63
2023-04-17T04:53:05.920Z,88.50
2023-04-17T04:55:52.496Z,94.13
2023-04-17T04:58:26.118Z,93.53
2023-04-17T05:01:07.077Z,95.37
2023-04-17T05:03:44.745Z,86.97
2023-04-17T05:06:19.792Z,95.27
2023-04-17T05:08:54.019Z,87.73
2023-04-17T05:11:24.154Z,89.73
2023-04-17T05:13:55.395Z,87.67
2023-04-17T05:16:28.242Z,76.97
2023-04-17T05:18:58.669Z,82.53
2023-04-17T05:21:46.716Z,74.50
2023-04-17T05:24:22.248Z,75.30
2023-04-17T05:26:55.249Z,80.53
2023-04-17T05:29:25.247Z,75.07
2023-04-17T05:31:56.569Z,73.30
2023-04-17T05:34:53.399Z,77.73
2023-04-17T05:37:25.536Z,73.77
2023-04-17T05:39:55.931Z,69.23
2023-04-17T05:42:32.762Z,70.70
2023-04-17T05:45:06.401Z,73.33
2023-04-17T05:47:35.856Z,75.63
2023-04-17T05:50:05.016Z,65.93
2023-04-17T05:52:37.337Z,66.80
2023-04-17T05:55:13.254Z,68.00
2023-04-17T05:57:42.537Z,65.83
2023-04-17T06:00:13.003Z,66.37
2023-04-17T06:02:51.088Z,62.70
2023-04-17T06:05:29.875Z,62.17
2023-04-17T06:08:00.977Z,60.17
2023-04-17T06:10:34.576Z,59.30
2023-04-17T06:13:03.819Z,58.30
2023-04-17T06:15:32.430Z,60.17
2023-04-17T06:18:02.123Z,56.27
2023-04-17T06:20:37.986Z,58.70
2023-04-17T06:23:09.609Z,58.97
2023-04-17T06:25:39.922Z,55.43
2023-04-17T06:28:07.925Z,50.80
2023-04-17T06:30:36.094Z,51.53
2023-04-17T06:33:08.950Z,51.63
2023-04-17T06:35:40.788Z,46.47
2023-04-17T06:38:29.059Z,48.77
2023-04-17T06:40:57.553Z,43.60
2023-04-17T06:43:27.307Z,41.67
2023-04-17T06:45:58.335Z,41.87
2023-04-17T06:48:29.159Z,39.80
2023-04-17T06:50:57.153Z,40.80
2023-04-17T06:53:25.776Z,38.33
2023-04-17T06:55:54.964Z,39.63
2023-04-17T06:58:22.936Z,37.33
2023-04-17T07:00:56.820Z,39.80
2023-04-17T07:03:33.844Z,35.53
2023-04-17T07:06:02.188Z,35.43
2023-04-17T07:08:37.352Z,38.33
2023-04-17T07:11:07.779Z,34.77
2023-04-17T07:14:12.735Z,34.50
2023-04-17T07:16:40.247Z,34.77
2023-04-17T07:19:30.192Z,34.07
2023-04-17T07:22:02.837Z,31.10
2023-04-17T07:24:35.062Z,30.83
2023-04-17T07:27:10.357Z,33.33
2023-04-17T07:29:56.690Z,34.50
2023-04-17T07:32:30.502Z,29.93
2023-04-17T07:35:14.847Z,30.97
2023-04-17T07:37:45.986Z,30.40
2023-04-17T07:40:14.606Z,32.27
2023-04-17T07:42:47.104Z,32.40
2023-04-17T07:45:17.017Z,30.67
2023-04-17T07:47:44.979Z,31.07
2023-04-17T07:50:16.202Z,29.70
2023-04-17T07:52:45.235Z,30.77
2023-04-17T07:55:16.757Z,30.37
2023-04-17T07:57:51.555Z,31.97
2023-04-17T08:00:21.784Z,29.40
2023-04-17T08:02:53.639Z,30.13
2023-04-17T08:05:23.823Z,28.20
2023-04-17T08:07:57.485Z,28.07
2023-04-17T08:10:25.646Z,29.10
2023-04-17T08:13:00.379Z,27.97
2023-04-17T08:15:39.557Z,26.63
2023-04-17T08:18:11.976Z,25.27
2023-04-17T08:20:45.008Z,25.77
2023-04-17T08:23:18.805Z,25.10
2023-04-17T08:25:49.785Z,26.47
2023-04-17T08:28:20.492Z,27.00
2023-04-17T08:30:48.751Z,24.50
2023-04-17T08:33:19.072Z,24.17
2023-04-17T08:35:52.250Z,23.70
2023-04-17T08:38:22.243Z,24.00
2023-04-17T08:41:02.072Z,24.67
2023-04-17T08:43:33.567Z,23.70
2023-04-17T08:46:06.640Z,23.30
2023-04-17T08:48:35.320Z,21.57
2023-04-17T08:51:07.274Z,20.60
2023-04-17T08:53:39.912Z,24.13
2023-04-17T08:56:10.416Z,20.57
2023-04-17T08:58:40.189Z,23.57
2023-04-17T09:01:11.288Z,21.30
2023-04-17T09:03:48.979Z,19.07
2023-04-17T09:06:32.606Z,21.30
2023-04-17T09:09:16.685Z,21.07
2023-04-17T09:11:50.793Z,22.20
2023-04-17T09:14:51.433Z,18.57
2023-04-17T09:17:25.437Z,19.27
2023-04-17T09:20:47.277Z,18.30
2023-04-17T09:27:57.467Z,25.57
2023-04-17T09:30:37.916Z,19.90
2023-04-17T09:33:11.869Z,18.93
2023-04-17T09:35:48.338Z,20.70
2023-04-17T09:38:18.864Z,19.03
2023-04-17T09:40:58.002Z,17.97
2023-04-17T09:43:43.529Z,17.07
2023-04-17T09:46:47.130Z,17.63
2023-04-17T09:49:23.593Z,17.60
2023-04-17T09:51:59.370Z,16.30
2023-04-17T09:55:10.289Z,17.47
2023-04-17T09:57:59.240Z,15.47
2023-04-17T10:00:46.095Z,14.77
2023-04-17T10:03:21.722Z,14.53
2023-04-17T10:06:03.745Z,16.67
2023-04-17T10:08:51.176Z,14.47
2023-04-17T10:14:58.536Z,12.97
2023-04-17T10:17:41.426Z,12.40
2023-04-17T10:20:48.092Z,11.43
2023-04-17T10:23:40.195Z,10.60
2023-04-17T10:26:48.270Z,10.87
2023-04-17T10:29:18.668Z,9.57
2023-04-17T10:32:30.121Z,9.40
2023-04-17T10:35:26.927Z,9.83
2023-04-17T10:38:08.618Z,11.77
2023-04-17T10:40:55.733Z,12.10
2023-04-17T10:43:33.891Z,10.43
2023-04-17T10:46:28.082Z,11.37
2023-04-17T10:49:11.968Z,9.57
2023-04-17T10:51:55.009Z,10.07
2023-04-17T10:55:11.153Z,8.97
2023-04-17T10:58:23.570Z,8.63
2023-04-17T11:01:18.889Z,9.60
2023-04-17T11:04:00.712Z,7.63
2023-04-17T11:06:31.105Z,8.93
2023-04-17T11:09:05.315Z,6.90
2023-04-17T11:11:44.110Z,7.77
2023-04-17T11:14:19.701Z,6.90
2023-04-17T11:16:56.310Z,7.77
2023-04-17T11:19:27.001Z,6.57
2023-04-17T11:21:58.904Z,7.00
2023-04-17T11:24:31.512Z,7.07
2023-04-17T11:27:03.416Z,7.27
2023-04-17T11:29:31.780Z,7.77
2023-04-17T11:32:02.095Z,7.90
2023-04-17T11:34:35.364Z,8.80
2023-04-17T11:37:07.965Z,9.37
2023-04-17T11:39:49.157Z,8.27
2023-04-17T11:42:27.054Z,8.37
2023-04-17T11:45:04.851Z,7.60
2023-04-17T11:47:36.787Z,7.93
2023-04-17T11:50:07.858Z,8.00
2023-04-17T11:52:38.785Z,6.93
2023-04-17T11:55:10.577Z,7.80
2023-04-17T11:57:43.386Z,8.60
2023-04-17T12:00:14.720Z,7.70
2023-04-17T12:02:44.205Z,7.57
2023-04-17T12:05:20.910Z,7.17
2023-04-17T12:08:04.943Z,8.67
2023-04-17T12:10:42.645Z,7.63
2023-04-17T12:13:21.155Z,5.77
2023-04-17T12:15:50.044Z,6.83
2023-04-17T12:18:23.132Z,6.40
2023-04-17T12:20:56.137Z,4.90
2023-04-17T12:23:24.359Z,5.00
2023-04-17T12:25:56.780Z,5.70
2023-04-17T12:28:34.158Z,6.83
2023-04-17T12:31:06.154Z,5.47
2023-04-17T12:33:34.399Z,6.80
2023-04-17T12:36:03.418Z,6.00
2023-04-17T12:38:35.354Z,5.80
2023-04-17T12:41:04.857Z,7.33
2023-04-17T12:43:33.539Z,6.03
2023-04-17T12:46:02.010Z,5.00
2023-04-17T12:48:38.159Z,5.33
2023-04-17T12:51:11.040Z,6.77
2023-04-17T12:53:40.046Z,5.77
2023-04-17T12:56:09.776Z,7.37
2023-04-17T12:58:42.804Z,4.53
2023-04-17T13:01:10.969Z,7.60
2023-04-17T13:03:42.240Z,4.13
2023-04-17T13:06:12.344Z,5.13
2023-04-17T13:08:48.742Z,4.23
2023-04-17T13:11:23.842Z,4.40
2023-04-17T13:13:56.762Z,7.07
2023-04-17T13:16:26.153Z,4.87
2023-04-17T13:19:02.137Z,5.27
2023-04-17T13:21:30.908Z,4.87
2023-04-17T13:24:01.477Z,5.23
2023-04-17T13:26:33.327Z,3.97
2023-04-17T13:29:04.612Z,4.47
2023-04-17T13:31:32.942Z,4.07
2023-04-17T13:34:04.133Z,3.60
2023-04-17T13:36:35.210Z,5.53
2023-04-17T13:39:09.516Z,4.60
2023-04-17T13:41:39.587Z,4.20
2023-04-17T13:44:10.950Z,7.30
2023-04-17T13:46:39.268Z,5.10
2023-04-17T13:49:09.133Z,5.77
2023-04-17T13:51:42.855Z,5.23
2023-04-17T13:54:19.224Z,5.67
2023-04-17T13:56:48.844Z,4.80
2023-04-17T14:01:51.808Z,8.40
2023-04-17T14:04:20.215Z,5.93
2023-04-17T14:06:50.278Z,3.97
2023-04-17T14:09:23.978Z,4.77
2023-04-17T14:11:53.570Z,3.50
2023-04-17T14:14:25.883Z,3.70
2023-04-17T14:16:55.764Z,6.00
2023-04-17T14:19:24.587Z,4.23
2023-04-17T14:21:55.619Z,4.47
2023-04-17T14:24:28.050Z,3.47
2023-04-17T14:27:00.875Z,3.20
2023-04-17T14:29:34.790Z,3.40
2023-04-17T14:32:05.519Z,3.93
2023-04-17T14:34:33.603Z,5.60
2023-04-17T14:37:01.633Z,4.33
2023-04-17T14:39:31.548Z,6.23
2023-04-17T14:42:02.966Z,4.20
2023-04-17T14:44:36.175Z,4.87
2023-04-17T14:47:07.138Z,4.77
2023-04-17T14:49:37.777Z,4.20
2023-04-17T14:52:07.974Z,4.03
2023-04-17T14:54:42.301Z,4.40
2023-04-17T14:57:14.771Z,5.90
2023-04-17T14:59:47.011Z,6.00
2023-04-17T15:02:15.095Z,6.17
2023-04-17T15:04:47.569Z,5.53
2023-04-17T15:07:18.587Z,5.67
2023-04-17T15:09:47.115Z,4.13
2023-04-17T15:12:21.041Z,4.83
2023-04-17T15:14:56.793Z,8.27
2023-04-17T15:17:30.884Z,5.80
2023-04-17T15:20:01.221Z,7.70
2023-04-17T15:22:31.061Z,5.17
2023-04-17T15:24:59.308Z,6.17
2023-04-17T15:27:31.400Z,5.50
2023-04-17T15:30:04.906Z,6.70
2023-04-17T15:32:34.215Z,5.13
2023-04-17T15:35:03.813Z,7.20
2023-04-17T15:37:34.865Z,6.83
2023-04-17T15:40:03.396Z,5.37
2023-04-17T15:42:35.970Z,5.53
2023-04-17T15:45:06.477Z,6.47
2023-04-17T15:47:34.582Z,7.27
2023-04-17T15:50:04.813Z,5.97
2023-04-17T15:52:34.703Z,7.00
2023-04-17T15:55:08.607Z,6.37
2023-04-17T15:57:41.041Z,8.50
2023-04-17T16:00:13.843Z,5.80
2023-04-17T16:02:41.927Z,6.20
2023-04-17T16:05:10.491Z,5.83
2023-04-17T16:07:38.450Z,5.63
2023-04-17T16:10:13.642Z,6.10
2023-04-17T16:12:43.788Z,7.77
2023-04-17T16:15:14.770Z,6.10
2023-04-17T16:17:50.309Z,6.60
2023-04-17T16:20:22.988Z,8.53
2023-04-17T16:22:53.425Z,5.87
2023-04-17T16:25:21.500Z,9.37
2023-04-17T16:27:54.197Z,6.73
2023-04-17T16:30:24.010Z,7.07
2023-04-17T16:32:52.231Z,7.23
2023-04-17T16:35:20.468Z,6.03
2023-04-17T16:37:48.552Z,8.50
2023-04-17T16:40:17.889Z,5.87
2023-04-17T16:42:45.984Z,9.37
2023-04-17T16:45:15.686Z,7.57
2023-04-17T16:47:46.812Z,8.57
2023-04-17T16:50:18.275Z,7.73
2023-04-17T16:52:52.244Z,7.80
2023-04-17T16:55:20.370Z,7.77
2023-04-17T16:57:54.266Z,7.57
2023-04-17T17:00:24.021Z,7.23
2023-04-17T17:02:52.239Z,11.10
2023-04-17T17:05:23.305Z,6.60
2023-04-17T17:07:51.293Z,9.70
2023-04-17T17:10:19.580Z,8.90
2023-04-17T17:12:49.220Z,8.20
2023-04-17T17:15:20.681Z,8.40
2023-04-17T17:17:53.113Z,6.93
2023-04-17T17:20:21.533Z,8.30
2023-04-17T17:22:53.399Z,7.30
2023-04-17T17:25:28.285Z,5.80
2023-04-17T17:28:03.478Z,6.27
2023-04-17T17:30:31.500Z,9.87
2023-04-17T17:33:04.002Z,8.63
2023-04-17T17:35:34.576Z,9.10
2023-04-17T17:38:05.224Z,10.93
2023-04-17T17:40:34.432Z,8.83
2023-04-17T17:43:02.441Z,6.87
2023-04-17T17:45:30.451Z,5.63
2023-04-17T17:48:02.827Z,6.17
2023-04-17T17:50:33.656Z,6.70
2023-04-17T17:53:01.637Z,7.47
2023-04-17T17:55:37.111Z,7.47
2023-04-17T17:58:05.720Z,5.67
2023-04-17T18:00:39.264Z,6.33
2023-04-17T18:03:15.685Z,6.67
2023-04-17T18:05:46.889Z,6.73
2023-04-17T18:08:15.449Z,6.43
2023-04-17T18:10:48.731Z,6.03
2023-04-17T18:13:21.910Z,9.13
2023-04-17T18:15:49.985Z,6.97
2023-04-17T18:18:20.462Z,7.40
2023-04-17T18:20:53.822Z,7.83
2023-04-17T18:23:23.976Z,10.93
2023-04-17T18:26:07.701Z,8.27
2023-04-17T18:28:38.681Z,9.33
2023-04-17T18:31:06.702Z,8.37
2023-04-17T18:33:44.038Z,8.77
2023-04-17T18:36:13.733Z,7.07
2023-04-17T18:38:43.451Z,7.00
2023-04-17T18:41:15.939Z,8.47
2023-04-17T18:43:47.541Z,7.73
2023-04-17T18:46:18.262Z,8.33
2023-04-17T18:48:49.105Z,9.30
2023-04-17T18:51:17.670Z,11.53
2023-04-17T18:53:46.136Z,10.00
2023-04-17T18:56:16.957Z,10.07
2023-04-17T18:58:45.037Z,9.70
2023-04-17T19:01:13.172Z,9.20
2023-04-17T19:03:41.272Z,10.23
2023-04-17T19:06:10.792Z,11.10
2023-04-17T19:08:39.515Z,10.97
2023-04-17T19:11:10.864Z,11.70
2023-04-17T19:13:42.379Z,11.33
2023-04-17T19:16:11.372Z,13.53
2023-04-17T19:18:48.684Z,12.90
2023-04-17T19:21:20.672Z,9.80
2023-04-17T19:23:49.567Z,11.87
2023-04-17T19:26:23.547Z,11.77
2023-04-17T19:28:56.136Z,13.23
2023-04-17T19:31:30.244Z,9.13
2023-04-17T19:34:01.054Z,9.07
2023-04-17T19:36:32.812Z,9.43
2023-04-17T19:39:09.009Z,9.67
2023-04-17T19:41:38.977Z,9.07
2023-04-17T19:44:12.554Z,10.07
2023-04-17T19:46:40.654Z,9.40
2023-04-17T19:49:08.668Z,12.37
2023-04-17T19:51:42.029Z,12.20
2023-04-17T19:54:15.872Z,11.27
2023-04-17T19:56:43.884Z,9.70
2023-04-17T19:59:14.855Z,13.17
2023-04-17T20:01:53.558Z,10.80
2023-04-17T20:04:21.983Z,11.63
2023-04-17T20:06:51.447Z,9.57
2023-04-17T20:09:19.843Z,12.73
2023-04-17T20:12:15.136Z,13.53
2023-04-17T20:14:52.631Z,12.97
2023-04-17T20:17:20.980Z,11.37
2023-04-17T20:19:49.086Z,11.73
2023-04-17T20:22:21.276Z,10.90
2023-04-17T20:24:54.765Z,11.10
2023-04-17T20:27:22.846Z,10.30
2023-04-17T20:29:50.979Z,11.20
2023-04-17T20:32:20.703Z,9.90
2023-04-17T20:34:54.037Z,8.73
2023-04-17T20:37:26.132Z,8.33
2023-04-17T20:39:54.782Z,10.27
2023-04-17T20:42:28.239Z,11.60
2023-04-17T20:44:59.618Z,10.10
2023-04-17T20:47:30.687Z,8.90
2023-04-17T20:50:07.094Z,8.63
2023-04-17T20:52:38.284Z,9.47
2023-04-17T20:55:07.972Z,10.53
2023-04-17T20:57:40.472Z,12.13
2023-04-17T21:00:17.530Z,9.57
2023-04-17T21:02:49.234Z,10.80
2023-04-17T21:05:28.275Z,15.00
2023-04-17T21:08:26.469Z,10.60
2023-04-17T21:10:57.939Z,11.67
2023-04-17T21:13:27.781Z,12.00
2023-04-17T21:16:18.301Z,13.07
2023-04-17T21:18:48.863Z,11.93
2023-04-17T21:21:19.888Z,9.70
2023-04-17T21:24:00.066Z,10.60
2023-04-17T21:26:31.156Z,11.67
2023-04-17T21:29:17.069Z,9.73
2023-04-17T21:31:46.904Z,10.43
2023-04-17T21:34:20.924Z,12.63
2023-04-17T21:36:56.783Z,15.17
2023-04-17T21:39:26.819Z,11.33
2023-04-17T21:41:59.852Z,11.30
2023-04-17T21:44:28.837Z,13.33
2023-04-17T21:46:57.153Z,12.33
2023-04-17T21:49:30.677Z,11.27
2023-04-17T21:52:01.874Z,10.27
2023-04-17T21:54:32.348Z,10.43
2023-04-17T21:57:04.339Z,10.47
2023-04-17T21:59:35.143Z,11.20
2023-04-17T22:02:03.497Z,12.43
2023-04-17T22:04:34.871Z,11.17
2023-04-17T22:07:06.264Z,12.97
2023-04-17T22:09:38.525Z,10.37
2023-04-17T22:12:20.991Z,11.17
2023-04-17T22:14:51.694Z,11.33
2023-04-17T22:17:19.983Z,12.13
2023-04-17T22:19:56.974Z,12.03
2023-04-17T22:22:25.550Z,12.83
2023-04-17T22:24:59.487Z,13.00
2023-04-17T22:27:27.664Z,11.57
2023-04-17T22:30:02.528Z,11.93
2023-04-17T22:32:30.828Z,11.23
2023-04-17T22:34:59.408Z,10.20
2023-04-17T22:37:29.361Z,10.33
2023-04-17T22:39:59.040Z,9.97
2023-04-17T22:42:29.053Z,12.37
2023-04-17T22:44:58.913Z,9.87
2023-04-17T22:47:39.979Z,12.03
2023-04-17T22:50:10.372Z,12.43
2023-04-17T22:52:41.731Z,10.67
2023-04-17T22:55:11.526Z,10.90
2023-04-17T22:57:44.838Z,13.00
2023-04-17T23:00:14.015Z,12.53
2023-04-17T23:02:49.230Z,15.37
2023-04-17T23:05:22.807Z,14.37
2023-04-17T23:07:51.168Z,12.90
2023-04-17T23:10:20.613Z,12.93
2023-04-17T23:12:50.496Z,14.47
2023-04-17T23:15:18.472Z,14.00
2023-04-17T23:17:53.944Z,11.37
2023-04-17T23:20:33.851Z,13.83
2023-04-17T23:23:01.882Z,11.37
2023-04-17T23:25:34.465Z,12.30
2023-04-17T23:28:05.008Z,12.53
2023-04-17T23:30:39.400Z,10.63
2023-04-17T23:33:07.376Z,13.37
2023-04-17T23:35:37.257Z,11.93
2023-04-17T23:38:05.591Z,12.27
2023-04-17T23:40:35.815Z,11.33
2023-04-17T23:43:03.821Z,10.83
2023-04-17T23:45:41.869Z,12.00
2023-04-17T23:48:15.961Z,12.03
2023-04-17T23:50:43.992Z,14.03
2023-04-17T23:53:13.715Z,13.77
2023-04-17T23:55:52.800Z,11.63
2023-04-17T23:58:21.346Z,13.23
